Terminal Aerodrome Forecast
Issued by NWS

Home | Current Version | Previous Version | Text Only | Print | Product List | Glossary On
Versions: 1 2 3 4 5 6 7 8 9 10 11 12 13 14 15 16 17 18
000
FTAK31 PANC 170107 AAA
TAFADQ
TAF AMD
PADQ 170107Z 1701/1724 27008KT P6SM FEW030
      TEMPO 1701/1705 27010G18KT=

USA.gov is the U.S. government's official web portal to all federal, state and local government web resources and services.